Terminal Aerodrome Forecast
Issued by NWS

Home | Current Version | Previous Version | Text Only | Print | Product List | Glossary On
Versions: 1 2 3 4 5 6 7 8 9 10 11 12 13 14 15 16 17
000
FTUS41 KBGM 161737
TAFITH
TAF
KITH 161737Z 1618/1718 20005KT P6SM BKN200
     FM170200 VRB03KT P6SM OVC100
     FM170500 12004KT P6SM OVC045
     FM171200 13006KT 3SM -FZRA BR OVC025
     FM171400 14007KT 2SM -RA BR OVC008=

USA.gov is the U.S. government's official web portal to all federal, state and local government web resources and services.